createdAt,value
2023-03-11T00:01:01.941Z,8.60
2023-03-11T00:04:05.957Z,8.57
2023-03-11T00:07:11.703Z,8.54
2023-03-11T00:10:19.160Z,8.49
2023-03-11T00:13:23.528Z,8.44
2023-03-11T00:16:27.547Z,8.42
2023-03-11T00:19:31.852Z,8.41
2023-03-11T00:22:35.881Z,8.40
2023-03-11T00:25:40.670Z,8.37
2023-03-11T00:28:44.585Z,8.33
2023-03-11T00:31:48.513Z,8.30
2023-03-11T00:34:52.451Z,8.27
2023-03-11T00:37:59.727Z,8.25
2023-03-11T00:41:03.818Z,8.25
2023-03-11T00:44:09.003Z,8.27
2023-03-11T00:47:13.128Z,8.30
2023-03-11T00:50:20.720Z,8.30
2023-03-11T00:53:24.838Z,8.27
2023-03-11T00:56:29.066Z,8.21
2023-03-11T00:59:35.432Z,8.15
2023-03-11T01:02:40.054Z,8.13
2023-03-11T01:05:44.079Z,8.13
2023-03-11T01:08:48.098Z,8.15
2023-03-11T01:11:52.084Z,8.16
2023-03-11T01:14:56.094Z,8.13
2023-03-11T01:18:00.873Z,8.10
2023-03-11T01:21:05.382Z,8.04
2023-03-11T01:24:09.818Z,7.97
2023-03-11T01:27:15.552Z,7.93
2023-03-11T01:30:22.459Z,7.93
2023-03-11T01:33:27.766Z,7.93
2023-03-11T01:36:31.735Z,7.94
2023-03-11T01:39:36.033Z,7.95
2023-03-11T01:42:40.095Z,7.92
2023-03-11T01:45:50.515Z,7.87
2023-03-11T01:49:02.597Z,7.79
2023-03-11T01:52:09.850Z,7.73
2023-03-11T01:55:20.848Z,7.70
2023-03-11T01:58:28.297Z,7.67
2023-03-11T02:01:33.209Z,7.66
2023-03-11T02:04:38.986Z,7.62
2023-03-11T02:07:42.993Z,7.58
2023-03-11T02:10:49.626Z,7.53
2023-03-11T02:13:58.997Z,7.46
2023-03-11T02:17:04.019Z,7.43
2023-03-11T02:20:39.921Z,7.43
2023-03-11T02:24:02.249Z,7.45
2023-03-11T02:27:09.461Z,7.45
2023-03-11T02:30:15.626Z,7.43
2023-03-11T02:33:21.684Z,7.38
2023-03-11T02:36:38.300Z,7.37
2023-03-11T02:39:45.710Z,7.33
2023-03-11T02:42:54.932Z,7.29
2023-03-11T02:45:59.943Z,7.26
2023-03-11T02:49:05.391Z,7.22
2023-03-11T02:52:10.623Z,7.17
2023-03-11T02:55:16.313Z,7.10
2023-03-11T02:58:20.445Z,7.05
2023-03-11T03:01:24.757Z,6.98
2023-03-11T03:04:29.147Z,6.91
2023-03-11T03:07:34.130Z,6.86
2023-03-11T03:10:38.749Z,6.80
2023-03-11T03:13:42.869Z,6.74
2023-03-11T03:16:46.888Z,6.67
2023-03-11T03:19:51.103Z,6.59
2023-03-11T03:22:55.637Z,6.50
2023-03-11T03:26:05.684Z,6.40
2023-03-11T03:29:10.713Z,6.33
2023-03-11T03:32:14.871Z,6.27
2023-03-11T03:35:19.269Z,6.20
2023-03-11T03:38:36.702Z,6.17
2023-03-11T03:41:41.233Z,6.12
2023-03-11T03:44:45.505Z,6.04
2023-03-11T03:47:49.573Z,5.99
2023-03-11T03:50:54.606Z,5.98
2023-03-11T03:53:58.548Z,6.01
2023-03-11T03:57:03.131Z,6.06
2023-03-11T04:00:12.099Z,6.13
2023-03-11T04:03:18.711Z,6.15
2023-03-11T04:06:28.485Z,6.13
2023-03-11T04:09:40.127Z,6.12
2023-03-11T04:12:44.189Z,6.11
2023-03-11T04:15:49.368Z,6.10
2023-03-11T04:18:53.696Z,6.11
2023-03-11T04:21:58.379Z,6.11
2023-03-11T04:25:03.632Z,6.10
2023-03-11T04:28:08.706Z,6.09
2023-03-11T04:31:13.354Z,6.11
2023-03-11T04:34:17.489Z,6.10
2023-03-11T04:37:21.670Z,6.11
2023-03-11T04:40:25.939Z,6.11
2023-03-11T04:43:30.917Z,6.09
2023-03-11T04:46:35.003Z,6.09
2023-03-11T04:49:39.602Z,6.11
2023-03-11T04:52:44.916Z,6.14
2023-03-11T04:55:49.039Z,6.20
2023-03-11T04:58:53.158Z,6.25
2023-03-11T05:01:58.168Z,6.28
2023-03-11T05:05:02.223Z,6.25
2023-03-11T05:08:06.540Z,6.23
2023-03-11T05:11:11.353Z,6.25
2023-03-11T05:14:15.590Z,6.26
2023-03-11T05:17:20.020Z,6.29
2023-03-11T05:20:24.997Z,6.31
2023-03-11T05:23:29.668Z,6.34
2023-03-11T05:26:34.115Z,6.35
2023-03-11T05:29:39.222Z,6.35
2023-03-11T05:32:44.937Z,6.39
2023-03-11T05:35:52.015Z,6.46
2023-03-11T05:38:56.642Z,6.54
2023-03-11T05:42:01.162Z,6.61
2023-03-11T05:45:06.410Z,6.68
2023-03-11T05:48:11.130Z,6.73
2023-03-11T05:51:15.412Z,6.75
2023-03-11T05:54:21.128Z,6.75
2023-03-11T05:57:27.184Z,6.79
2023-03-11T06:00:32.009Z,6.86
2023-03-11T06:03:38.955Z,6.94
2023-03-11T06:06:43.316Z,7.01
2023-03-11T06:09:50.511Z,7.07
2023-03-11T06:12:55.341Z,7.15
2023-03-11T06:16:13.021Z,7.22
2023-03-11T06:19:17.301Z,7.31
2023-03-11T06:22:24.797Z,7.41
2023-03-11T06:25:28.792Z,7.52
2023-03-11T06:28:33.574Z,7.63
2023-03-11T06:31:39.621Z,7.71
2023-03-11T06:34:50.562Z,7.79
2023-03-11T06:37:54.711Z,7.85
2023-03-11T06:41:00.684Z,7.89
2023-03-11T06:44:05.095Z,7.95
2023-03-11T06:47:10.426Z,8.03
2023-03-11T06:50:14.586Z,8.14
2023-03-11T06:53:18.538Z,8.22
2023-03-11T06:56:24.225Z,8.27
2023-03-11T06:59:41.054Z,8.32
2023-03-11T07:02:45.788Z,8.37
2023-03-11T07:05:51.939Z,8.45
2023-03-11T07:08:56.782Z,8.52
2023-03-11T07:12:00.855Z,8.56
2023-03-11T07:15:14.163Z,8.59
2023-03-11T07:18:18.660Z,8.61
2023-03-11T07:21:23.676Z,8.62
2023-03-11T07:24:27.724Z,8.63
2023-03-11T07:27:32.452Z,8.66
2023-03-11T07:30:39.199Z,8.69
2023-03-11T07:33:43.221Z,8.74
2023-03-11T07:36:47.258Z,8.77
2023-03-11T07:39:51.235Z,8.78
2023-03-11T07:42:55.194Z,8.77
2023-03-11T07:46:22.687Z,8.76
2023-03-11T07:49:26.731Z,8.76
2023-03-11T07:52:33.418Z,8.75
2023-03-11T07:55:37.362Z,8.77
2023-03-11T07:58:43.570Z,8.75
2023-03-11T08:01:50.671Z,8.71
2023-03-11T08:04:56.338Z,8.71
2023-03-11T08:08:00.288Z,8.69
2023-03-11T08:11:04.625Z,8.68
2023-03-11T08:14:09.021Z,8.69
2023-03-11T08:17:13.179Z,8.68
2023-03-11T08:20:17.585Z,8.66
2023-03-11T08:23:21.505Z,8.65
2023-03-11T08:26:25.677Z,8.62
2023-03-11T08:29:29.626Z,8.58
2023-03-11T08:32:33.928Z,8.56
2023-03-11T08:35:38.104Z,8.55
2023-03-11T08:38:42.514Z,8.53
2023-03-11T08:41:46.507Z,8.51
2023-03-11T08:44:50.726Z,8.44
2023-03-11T08:47:54.741Z,8.38
2023-03-11T08:50:59.275Z,8.28
2023-03-11T08:54:03.694Z,8.23
2023-03-11T08:57:07.715Z,8.18
2023-03-11T09:00:13.433Z,8.16
2023-03-11T09:03:18.096Z,8.12
2023-03-11T09:06:22.180Z,8.03
2023-03-11T09:09:26.229Z,7.96
2023-03-11T09:12:30.657Z,7.93
2023-03-11T09:15:34.976Z,7.90
2023-03-11T09:18:38.998Z,7.88
2023-03-11T09:21:42.946Z,7.86
2023-03-11T09:24:46.918Z,7.82
2023-03-11T09:27:50.937Z,7.74
2023-03-11T09:30:55.064Z,7.69
2023-03-11T09:33:59.077Z,7.64
2023-03-11T09:37:03.019Z,7.59
2023-03-11T09:40:08.390Z,7.56
2023-03-11T09:43:21.260Z,7.49
2023-03-11T09:46:37.329Z,7.43
2023-03-11T09:50:07.846Z,7.40
2023-03-11T09:53:35.052Z,7.38
2023-03-11T09:56:44.034Z,7.33
2023-03-11T09:59:49.354Z,7.28
2023-03-11T10:02:53.855Z,7.23
2023-03-11T10:06:13.542Z,7.16
2023-03-11T10:09:40.727Z,7.04
2023-03-11T10:12:50.463Z,6.88
2023-03-11T10:15:57.185Z,6.64
2023-03-11T10:19:23.492Z,6.40
2023-03-11T10:22:36.376Z,6.17
2023-03-11T10:25:56.791Z,5.91
2023-03-11T10:29:28.968Z,5.60
2023-03-11T10:32:50.014Z,5.32
2023-03-11T10:35:56.894Z,5.12
2023-03-11T10:39:02.407Z,4.95
2023-03-11T10:42:13.722Z,4.86
2023-03-11T10:45:20.589Z,4.77
2023-03-11T10:48:26.567Z,4.69
2023-03-11T10:51:35.075Z,4.62
2023-03-11T10:54:46.115Z,4.55
2023-03-11T10:57:50.151Z,4.36
2023-03-11T11:01:21.860Z,4.19
2023-03-11T11:04:35.465Z,4.11
2023-03-11T11:07:42.463Z,4.05
2023-03-11T11:10:58.658Z,3.95
2023-03-11T11:14:02.708Z,3.82
2023-03-11T11:17:14.138Z,3.73
2023-03-11T11:20:19.877Z,3.58
2023-03-11T11:23:33.073Z,3.43
2023-03-11T11:26:37.156Z,3.29
2023-03-11T11:29:41.754Z,3.21
2023-03-11T11:32:45.873Z,3.11
2023-03-11T11:35:54.210Z,3.03
2023-03-11T11:39:03.375Z,2.97
2023-03-11T11:42:12.510Z,2.89
2023-03-11T11:45:37.942Z,2.75
2023-03-11T11:49:00.987Z,2.60
2023-03-11T11:52:22.814Z,2.50
2023-03-11T11:55:30.652Z,2.44
2023-03-11T11:58:35.627Z,2.41
2023-03-11T12:01:50.008Z,2.36
2023-03-11T12:05:12.632Z,2.29
2023-03-11T12:08:28.642Z,2.26
2023-03-11T12:11:46.413Z,2.24
2023-03-11T12:15:14.801Z,2.16
2023-03-11T12:18:26.827Z,2.07
2023-03-11T12:21:39.622Z,2.01
2023-03-11T12:24:49.257Z,1.96
2023-03-11T12:28:17.940Z,1.95
2023-03-11T12:31:24.910Z,1.96
2023-03-11T12:34:31.435Z,1.97
2023-03-11T12:37:35.504Z,1.99
2023-03-11T12:40:42.169Z,1.96
2023-03-11T12:43:47.311Z,1.96
2023-03-11T12:46:54.150Z,1.92
2023-03-11T12:50:35.936Z,1.90
2023-03-11T12:53:48.613Z,1.86
2023-03-11T12:56:58.521Z,1.76
2023-03-11T13:00:30.803Z,1.68
2023-03-11T13:03:46.886Z,1.64
2023-03-11T13:07:12.918Z,1.62
2023-03-11T13:10:21.463Z,1.57
2023-03-11T13:13:25.480Z,1.56
2023-03-11T13:16:29.409Z,1.53
2023-03-11T13:19:36.277Z,1.53
2023-03-11T13:22:45.018Z,1.53
2023-03-11T13:25:51.542Z,1.51
2023-03-11T13:29:21.526Z,1.48
2023-03-11T13:33:12.208Z,1.42
2023-03-11T13:36:34.866Z,1.45
2023-03-11T13:39:45.336Z,1.46
2023-03-11T13:42:51.803Z,1.49
2023-03-11T13:46:07.473Z,1.50
2023-03-11T13:49:40.249Z,1.52
2023-03-11T13:52:49.217Z,1.46
2023-03-11T13:55:53.238Z,1.41
2023-03-11T13:59:27.795Z,1.36
2023-03-11T14:02:31.985Z,1.30
2023-03-11T14:05:38.112Z,1.27
2023-03-11T14:08:42.972Z,1.24
2023-03-11T14:11:49.037Z,1.17
2023-03-11T14:15:04.345Z,1.11
2023-03-11T14:18:37.008Z,1.07
2023-03-11T14:21:45.425Z,1.05
2023-03-11T14:24:49.653Z,1.05
2023-03-11T14:28:02.665Z,1.01
2023-03-11T14:31:06.892Z,0.95
2023-03-11T14:34:10.927Z,0.92
2023-03-11T14:37:33.010Z,0.93
2023-03-11T14:40:42.103Z,0.94
2023-03-11T14:43:50.407Z,0.95
2023-03-11T14:47:18.977Z,0.94
2023-03-11T14:50:25.797Z,0.97
2023-03-11T14:53:35.593Z,1.01
2023-03-11T14:56:44.984Z,1.02
2023-03-11T14:59:51.238Z,1.01
2023-03-11T15:03:17.089Z,1.01
2023-03-11T15:06:26.399Z,1.06
2023-03-11T15:09:31.739Z,1.08
2023-03-11T15:12:46.673Z,1.09
2023-03-11T15:16:01.060Z,1.06
2023-03-11T15:19:30.326Z,1.03
2023-03-11T15:22:38.052Z,1.05
2023-03-11T15:25:50.142Z,1.05
2023-03-11T15:29:06.602Z,1.06
2023-03-11T15:32:29.250Z,1.09
2023-03-11T15:35:45.174Z,1.09
2023-03-11T15:39:07.097Z,1.09
2023-03-11T15:42:29.328Z,1.11
2023-03-11T15:45:33.268Z,1.15
2023-03-11T15:48:37.216Z,1.16
2023-03-11T15:51:41.193Z,1.13
2023-03-11T15:54:55.207Z,1.08
2023-03-11T15:58:08.050Z,1.12
2023-03-11T16:01:11.980Z,1.16
2023-03-11T16:04:18.479Z,1.13
2023-03-11T16:07:36.809Z,1.12
2023-03-11T16:10:43.113Z,1.12
2023-03-11T16:13:47.124Z,1.09
2023-03-11T16:16:51.068Z,1.08
2023-03-11T16:19:54.978Z,1.08
2023-03-11T16:23:01.394Z,1.08
2023-03-11T16:26:05.990Z,1.10
2023-03-11T16:29:19.090Z,1.08
2023-03-11T16:32:23.925Z,1.01
2023-03-11T16:35:28.015Z,0.99
2023-03-11T16:38:42.753Z,0.97
2023-03-11T16:41:46.726Z,0.97
2023-03-11T16:44:50.991Z,0.95
2023-03-11T16:47:54.995Z,0.94
2023-03-11T16:50:59.125Z,0.91
2023-03-11T16:54:03.131Z,0.88
2023-03-11T16:57:07.147Z,0.88
2023-03-11T17:00:13.127Z,0.87
2023-03-11T17:03:21.607Z,0.87
2023-03-11T17:06:25.937Z,0.87
2023-03-11T17:09:29.853Z,0.87
2023-03-11T17:12:33.849Z,0.87
2023-03-11T17:15:38.790Z,0.86
2023-03-11T17:18:42.678Z,0.83
2023-03-11T17:21:46.858Z,0.79
2023-03-11T17:24:50.908Z,0.75
2023-03-11T17:27:55.091Z,0.74
2023-03-11T17:31:00.313Z,0.75
2023-03-11T17:34:04.352Z,0.81
2023-03-11T17:37:09.085Z,0.84
2023-03-11T17:40:13.098Z,0.86
2023-03-11T17:43:17.078Z,0.85
2023-03-11T17:46:22.592Z,0.82
2023-03-11T17:49:26.843Z,0.77
2023-03-11T17:52:30.818Z,0.73
2023-03-11T17:55:38.292Z,0.72
2023-03-11T17:58:42.599Z,0.72
2023-03-11T18:01:46.654Z,0.72
2023-03-11T18:04:53.982Z,0.74
2023-03-11T18:07:58.821Z,0.72
2023-03-11T18:11:05.892Z,0.69
2023-03-11T18:14:10.557Z,0.65
2023-03-11T18:17:15.821Z,0.64
2023-03-11T18:20:20.860Z,0.67
2023-03-11T18:23:24.875Z,0.70
2023-03-11T18:26:30.054Z,0.73
2023-03-11T18:29:34.031Z,0.75
2023-03-11T18:32:38.044Z,0.77
2023-03-11T18:35:42.380Z,0.74
2023-03-11T18:38:47.637Z,0.70
2023-03-11T18:41:51.557Z,0.63
2023-03-11T18:44:55.535Z,0.58
2023-03-11T18:47:59.562Z,0.55
2023-03-11T18:51:03.943Z,0.55
2023-03-11T18:54:08.602Z,0.52
2023-03-11T18:57:12.654Z,0.49
2023-03-11T19:00:22.488Z,0.47
2023-03-11T19:03:26.399Z,0.46
2023-03-11T19:06:30.522Z,0.43
2023-03-11T19:09:34.740Z,0.39
2023-03-11T19:12:40.085Z,0.36
2023-03-11T19:15:43.984Z,0.33
2023-03-11T19:18:48.541Z,0.30
2023-03-11T19:21:52.546Z,0.28
2023-03-11T19:24:56.450Z,0.30
2023-03-11T19:28:01.045Z,0.33
2023-03-11T19:31:05.831Z,0.36
2023-03-11T19:34:10.050Z,0.37
2023-03-11T19:37:14.264Z,0.36
2023-03-11T19:40:18.485Z,0.35
2023-03-11T19:43:23.887Z,0.33
2023-03-11T19:46:29.519Z,0.30
2023-03-11T19:49:33.822Z,0.27
2023-03-11T19:52:37.900Z,0.23
2023-03-11T19:55:46.473Z,0.19
2023-03-11T19:58:50.481Z,0.16
2023-03-11T20:01:54.484Z,0.13
2023-03-11T20:04:58.539Z,0.09
2023-03-11T20:08:03.997Z,0.06
2023-03-11T20:11:08.298Z,0.06
2023-03-11T20:14:13.260Z,0.09
2023-03-11T20:17:17.627Z,0.11
2023-03-11T20:20:21.859Z,0.15
2023-03-11T20:23:26.021Z,0.16
2023-03-11T20:26:30.133Z,0.14
2023-03-11T20:29:34.129Z,0.13
2023-03-11T20:32:38.350Z,0.12
2023-03-11T20:35:42.504Z,0.12
2023-03-11T20:38:51.519Z,0.10
2023-03-11T20:41:55.590Z,0.06
2023-03-11T20:44:59.626Z,0.03
2023-03-11T20:48:03.847Z,0.06
2023-03-11T20:51:12.103Z,0.11
2023-03-11T20:54:16.878Z,0.14
2023-03-11T20:57:20.887Z,0.16
2023-03-11T21:00:24.947Z,0.18
2023-03-11T21:03:29.099Z,0.21
2023-03-11T21:06:37.747Z,0.24
2023-03-11T21:09:42.102Z,0.27
2023-03-11T21:12:46.209Z,0.28
2023-03-11T21:15:53.858Z,0.31
2023-03-11T21:18:57.977Z,0.33
2023-03-11T21:22:02.052Z,0.33
2023-03-11T21:25:08.643Z,0.33
2023-03-11T21:28:14.062Z,0.36
2023-03-11T21:31:26.492Z,0.41
2023-03-11T21:34:31.898Z,0.46
2023-03-11T21:37:36.017Z,0.49
2023-03-11T21:40:40.211Z,0.52
2023-03-11T21:43:44.606Z,0.51
2023-03-11T21:46:48.727Z,0.49
2023-03-11T21:49:52.715Z,0.44
2023-03-11T21:52:56.952Z,0.39
2023-03-11T21:56:03.789Z,0.36
2023-03-11T21:59:08.581Z,0.36
2023-03-11T22:02:17.269Z,0.37
2023-03-11T22:05:21.404Z,0.40
2023-03-11T22:08:27.122Z,0.42
2023-03-11T22:11:31.614Z,0.43
2023-03-11T22:14:35.931Z,0.43
2023-03-11T22:17:40.191Z,0.44
2023-03-11T22:20:44.703Z,0.45
2023-03-11T22:23:49.238Z,0.45
2023-03-11T22:26:53.286Z,0.44
2023-03-11T22:29:57.304Z,0.47
2023-03-11T22:33:01.228Z,0.49
2023-03-11T22:36:07.702Z,0.51
2023-03-11T22:39:11.822Z,0.51
2023-03-11T22:42:15.809Z,0.50
2023-03-11T22:45:22.305Z,0.48
2023-03-11T22:48:26.331Z,0.43
2023-03-11T22:51:30.336Z,0.40
2023-03-11T22:54:34.410Z,0.35
2023-03-11T22:57:39.115Z,0.30
2023-03-11T23:00:44.248Z,0.28
2023-03-11T23:03:48.444Z,0.28
2023-03-11T23:06:54.619Z,0.30
2023-03-11T23:09:58.623Z,0.29
2023-03-11T23:13:02.663Z,0.25
2023-03-11T23:16:26.307Z,0.21
2023-03-11T23:19:30.437Z,0.18
2023-03-11T23:22:39.536Z,0.15
2023-03-11T23:25:43.508Z,0.12
2023-03-11T23:28:49.344Z,0.10
2023-03-11T23:31:53.247Z,0.12
2023-03-11T23:34:57.153Z,0.12
2023-03-11T23:38:01.280Z,0.13
2023-03-11T23:41:09.873Z,0.14
2023-03-11T23:44:14.441Z,0.13
2023-03-11T23:47:18.558Z,0.10
2023-03-11T23:50:22.573Z,0.05
2023-03-11T23:53:27.407Z,0.02
2023-03-11T23:56:31.372Z,0.00
2023-03-11T23:59:35.841Z,0.02
